createdAt,value
2019-04-25T00:00:22.381Z,16.48
2019-04-25T00:01:22.302Z,16.47
2019-04-25T00:02:22.296Z,16.36
2019-04-25T00:03:22.394Z,16.40
2019-04-25T00:04:22.274Z,16.30
2019-04-25T00:05:22.261Z,16.29
2019-04-25T00:06:23.073Z,16.23
2019-04-25T00:07:22.240Z,16.25
2019-04-25T00:08:22.240Z,16.23
2019-04-25T00:09:22.241Z,16.26
2019-04-25T00:10:22.201Z,16.16
2019-04-25T00:11:22.197Z,16.13
2019-04-25T00:12:22.372Z,16.10
2019-04-25T00:13:22.180Z,16.11
2019-04-25T00:14:22.601Z,16.08
2019-04-25T00:15:22.412Z,16.11
2019-04-25T00:16:22.146Z,16.03
2019-04-25T00:17:22.152Z,16.03
2019-04-25T00:18:23.358Z,16.04
2019-04-25T00:19:22.116Z,16.04
2019-04-25T00:20:22.110Z,15.92
2019-04-25T00:21:22.112Z,15.95
2019-04-25T00:22:22.085Z,15.91
2019-04-25T00:23:22.108Z,15.89
2019-04-25T00:24:23.792Z,15.84
2019-04-25T00:25:22.079Z,15.88
2019-04-25T00:26:22.032Z,15.86
2019-04-25T00:27:23.748Z,15.76
2019-04-25T00:28:22.013Z,15.71
2019-04-25T00:29:22.192Z,15.73
2019-04-25T00:30:22.566Z,15.66
2019-04-25T00:31:22.115Z,15.64
2019-04-25T00:32:21.978Z,15.64
2019-04-25T00:33:21.953Z,15.60
2019-04-25T00:34:21.945Z,15.59
2019-04-25T00:35:21.952Z,15.62
2019-04-25T00:36:21.919Z,15.51
2019-04-25T00:37:22.572Z,15.52
2019-04-25T00:38:22.253Z,15.51
2019-04-25T00:39:21.890Z,15.52
2019-04-25T00:40:21.998Z,15.49
2019-04-25T00:41:21.889Z,15.37
2019-04-25T00:42:23.214Z,15.38
2019-04-25T00:43:21.846Z,15.44
2019-04-25T00:44:21.981Z,15.41
2019-04-25T00:45:22.295Z,15.38
2019-04-25T00:46:22.519Z,15.49
2019-04-25T00:47:21.802Z,15.38
2019-04-25T00:48:22.345Z,15.41
2019-04-25T00:49:22.070Z,15.40
2019-04-25T00:50:22.006Z,15.40
2019-04-25T00:51:21.857Z,15.38
2019-04-25T00:52:22.830Z,15.30
2019-04-25T00:53:21.765Z,15.27
2019-04-25T00:54:22.666Z,15.16
2019-04-25T00:55:28.500Z,15.22
2019-04-25T00:56:22.745Z,15.19
2019-04-25T00:57:22.070Z,15.03
2019-04-25T00:58:21.689Z,14.94
2019-04-25T00:59:22.114Z,14.93
2019-04-25T01:00:21.724Z,14.93
2019-04-25T01:01:21.860Z,14.86
2019-04-25T01:02:21.702Z,14.80
2019-04-25T01:03:21.637Z,14.82
2019-04-25T01:04:21.842Z,14.64
2019-04-25T01:05:21.704Z,14.61
2019-04-25T01:06:22.061Z,14.59
2019-04-25T01:07:22.409Z,14.53
2019-04-25T01:08:21.999Z,14.30
2019-04-25T01:09:22.247Z,14.17
2019-04-25T01:10:23.068Z,13.83
2019-04-25T01:11:21.595Z,13.48
2019-04-25T01:12:21.670Z,13.36
2019-04-25T01:13:22.333Z,13.35
2019-04-25T01:14:21.885Z,13.24
2019-04-25T01:15:21.517Z,13.13
2019-04-25T01:16:22.047Z,13.12
2019-04-25T01:17:22.882Z,13.07
2019-04-25T01:18:23.053Z,13.12
2019-04-25T01:19:21.478Z,13.10
2019-04-25T01:20:21.482Z,13.13
2019-04-25T01:21:21.454Z,13.13
2019-04-25T01:22:21.460Z,13.14
2019-04-25T01:23:21.416Z,13.14
2019-04-25T01:24:21.411Z,13.06
2019-04-25T01:25:21.422Z,13.10
2019-04-25T01:26:21.430Z,13.03
2019-04-25T01:27:21.376Z,13.03
2019-04-25T01:28:21.361Z,13.03
2019-04-25T01:29:21.365Z,13.04
2019-04-25T01:30:21.353Z,13.07
2019-04-25T01:31:21.354Z,13.04
2019-04-25T01:32:21.358Z,13.07
2019-04-25T01:33:21.313Z,13.07
2019-04-25T01:34:21.316Z,13.16
2019-04-25T01:35:21.287Z,13.06
2019-04-25T01:36:21.297Z,13.07
2019-04-25T01:37:21.262Z,12.99
2019-04-25T01:38:21.293Z,12.95
2019-04-25T01:39:21.269Z,13.03
2019-04-25T01:40:21.238Z,12.96
2019-04-25T01:41:21.237Z,12.95
2019-04-25T01:42:21.221Z,12.89
2019-04-25T01:43:21.200Z,12.89
2019-04-25T01:44:21.211Z,12.88
2019-04-25T01:45:21.184Z,12.92
2019-04-25T01:46:21.175Z,12.84
2019-04-25T01:47:21.155Z,12.79
2019-04-25T01:48:21.162Z,12.79
2019-04-25T01:49:21.151Z,12.79
2019-04-25T01:50:21.170Z,12.80
2019-04-25T01:51:21.121Z,12.79
2019-04-25T01:52:21.113Z,12.63
2019-04-25T01:53:21.138Z,12.62
2019-04-25T01:54:21.103Z,12.44
2019-04-25T01:55:21.108Z,12.54
2019-04-25T01:56:21.105Z,12.55
2019-04-25T01:57:21.059Z,12.48
2019-04-25T01:58:21.047Z,12.44
2019-04-25T01:59:21.033Z,12.46
2019-04-25T02:00:21.045Z,12.44
2019-04-25T02:01:21.012Z,12.38
2019-04-25T02:02:21.087Z,12.44
2019-04-25T02:03:21.002Z,12.43
2019-04-25T02:04:20.972Z,12.36
2019-04-25T02:05:20.974Z,12.36
2019-04-25T02:06:20.980Z,12.31
2019-04-25T02:07:20.971Z,12.29
2019-04-25T02:08:20.982Z,12.21
2019-04-25T02:09:20.939Z,12.29
2019-04-25T02:10:20.919Z,12.31
2019-04-25T02:11:20.910Z,12.25
2019-04-25T02:12:20.899Z,12.26
2019-04-25T02:13:20.878Z,12.30
2019-04-25T02:14:20.913Z,12.33
2019-04-25T02:15:20.864Z,12.29
2019-04-25T02:16:20.846Z,12.26
2019-04-25T02:17:20.840Z,12.34
2019-04-25T02:18:20.841Z,12.34
2019-04-25T02:19:20.870Z,12.33
2019-04-25T02:20:20.810Z,12.26
2019-04-25T02:21:20.803Z,12.33
2019-04-25T02:22:20.799Z,12.22
2019-04-25T02:23:20.776Z,12.23
2019-04-25T02:24:20.771Z,12.31
2019-04-25T02:25:20.806Z,12.33
2019-04-25T02:26:20.744Z,12.23
2019-04-25T02:27:20.739Z,12.29
2019-04-25T02:28:20.734Z,12.29
2019-04-25T02:29:20.733Z,12.30
2019-04-25T02:30:20.724Z,12.19
2019-04-25T02:31:20.705Z,12.16
2019-04-25T02:32:20.681Z,12.25
2019-04-25T02:33:20.681Z,12.21
2019-04-25T02:34:20.673Z,12.21
2019-04-25T02:35:20.696Z,12.26
2019-04-25T02:36:20.644Z,12.19
2019-04-25T02:37:20.642Z,12.26
2019-04-25T02:38:20.620Z,12.23
2019-04-25T02:39:20.613Z,12.18
2019-04-25T02:40:20.603Z,12.30
2019-04-25T02:41:20.672Z,12.26
2019-04-25T02:42:20.594Z,12.21
2019-04-25T02:43:20.580Z,12.13
2019-04-25T02:44:20.555Z,12.13
2019-04-25T02:45:20.546Z,12.13
2019-04-25T02:46:20.542Z,12.00
2019-04-25T02:47:20.565Z,12.03
2019-04-25T02:48:20.519Z,12.03
2019-04-25T02:49:34.040Z,11.96
2019-04-25T02:50:21.497Z,12.00
2019-04-25T02:51:20.494Z,11.98
2019-04-25T02:52:20.497Z,11.90
2019-04-25T02:53:20.481Z,11.90
2019-04-25T02:54:20.468Z,12.00
2019-04-25T02:55:30.974Z,11.87
2019-04-25T02:56:31.170Z,11.87
2019-04-25T02:57:21.418Z,11.97
2019-04-25T02:58:20.415Z,11.87
2019-04-25T02:59:20.471Z,11.84
2019-04-25T03:00:20.380Z,11.84
2019-04-25T03:01:23.458Z,11.88
2019-04-25T03:02:21.359Z,11.82
2019-04-25T03:03:20.362Z,11.82
2019-04-25T03:04:20.349Z,11.87
2019-04-25T03:05:20.379Z,11.81
2019-04-25T03:06:20.319Z,11.81
2019-04-25T03:07:20.323Z,11.78
2019-04-25T03:08:20.307Z,11.79
2019-04-25T03:09:20.319Z,11.84
2019-04-25T03:10:20.275Z,11.88
2019-04-25T03:11:20.398Z,11.87
2019-04-25T03:12:30.569Z,11.85
2019-04-25T03:13:21.268Z,11.74
2019-04-25T03:14:20.253Z,11.79
2019-04-25T03:15:20.255Z,11.74
2019-04-25T03:16:20.249Z,11.74
2019-04-25T03:17:20.245Z,11.66
2019-04-25T03:18:20.199Z,11.72
2019-04-25T03:19:20.190Z,11.67
2019-04-25T03:20:20.210Z,11.69
2019-04-25T03:21:20.160Z,11.62
2019-04-25T03:22:20.217Z,11.60
2019-04-25T03:23:20.139Z,11.54
2019-04-25T03:24:20.127Z,11.51
2019-04-25T03:25:20.120Z,11.62
2019-04-25T03:26:20.109Z,11.56
2019-04-25T03:27:20.097Z,11.54
2019-04-25T03:28:20.130Z,11.53
2019-04-25T03:29:20.087Z,11.59
2019-04-25T03:30:20.064Z,11.53
2019-04-25T03:31:23.093Z,11.59
2019-04-25T03:32:21.072Z,11.56
2019-04-25T03:33:20.132Z,11.45
2019-04-25T03:34:20.906Z,11.45
2019-04-25T03:35:20.001Z,11.45
2019-04-25T03:36:19.992Z,11.45
2019-04-25T03:37:20.001Z,11.49
2019-04-25T03:38:19.977Z,11.45
2019-04-25T03:39:19.974Z,11.49
2019-04-25T03:40:20.012Z,11.46
2019-04-25T03:41:19.998Z,11.53
2019-04-25T03:42:19.936Z,11.45
2019-04-25T03:43:19.924Z,11.49
2019-04-25T03:44:19.922Z,11.42
2019-04-25T03:45:19.908Z,11.46
2019-04-25T03:46:19.909Z,11.46
2019-04-25T03:47:19.880Z,11.28
2019-04-25T03:48:19.865Z,11.35
2019-04-25T03:49:19.870Z,11.27
2019-04-25T03:50:19.874Z,11.28
2019-04-25T03:51:19.838Z,11.30
2019-04-25T03:52:19.847Z,11.33
2019-04-25T03:53:19.830Z,11.38
2019-04-25T03:54:19.816Z,11.30
2019-04-25T03:55:19.794Z,11.28
2019-04-25T03:56:19.811Z,11.36
2019-04-25T03:57:19.799Z,11.28
2019-04-25T03:58:19.765Z,11.33
2019-04-25T03:59:19.749Z,11.38
2019-04-25T04:00:19.752Z,11.38
2019-04-25T04:01:19.738Z,11.45
2019-04-25T04:02:19.729Z,11.41
2019-04-25T04:03:19.739Z,11.30
2019-04-25T04:04:19.701Z,11.28
2019-04-25T04:05:19.690Z,11.31
2019-04-25T04:06:19.674Z,11.35
2019-04-25T04:07:19.679Z,11.30
2019-04-25T04:08:19.657Z,11.33
2019-04-25T04:09:19.662Z,11.28
2019-04-25T04:10:21.196Z,11.33
2019-04-25T04:11:19.621Z,11.26
2019-04-25T04:12:19.609Z,11.21
2019-04-25T04:13:19.608Z,11.23
2019-04-25T04:14:19.595Z,11.20
2019-04-25T04:15:19.613Z,11.24
2019-04-25T04:16:19.566Z,11.19
2019-04-25T04:17:19.559Z,11.19
2019-04-25T04:18:19.551Z,11.20
2019-04-25T04:19:19.531Z,11.13
2019-04-25T04:20:19.524Z,11.12
2019-04-25T04:21:19.532Z,11.16
2019-04-25T04:22:19.519Z,11.17
2019-04-25T04:23:19.499Z,11.17
2019-04-25T04:24:19.485Z,11.12
2019-04-25T04:25:19.491Z,11.20
2019-04-25T04:26:19.460Z,11.03
2019-04-25T04:27:19.472Z,11.12
2019-04-25T04:28:19.441Z,11.12
2019-04-25T04:29:19.432Z,11.12
2019-04-25T04:30:19.437Z,11.06
2019-04-25T04:31:19.402Z,11.05
2019-04-25T04:32:19.430Z,11.12
2019-04-25T04:33:29.766Z,11.06
2019-04-25T04:34:20.371Z,11.16
2019-04-25T04:35:19.384Z,11.11
2019-04-25T04:36:19.350Z,11.11
2019-04-25T04:37:19.340Z,11.01
2019-04-25T04:38:19.383Z,11.08
2019-04-25T04:39:19.323Z,11.03
2019-04-25T04:40:19.318Z,11.03
2019-04-25T04:41:19.297Z,11.06
2019-04-25T04:42:19.288Z,11.08
2019-04-25T04:43:19.286Z,11.11
2019-04-25T04:44:19.289Z,11.20
2019-04-25T04:45:19.254Z,11.12
2019-04-25T04:46:19.801Z,11.11
2019-04-25T04:47:19.238Z,11.19
2019-04-25T04:48:19.235Z,11.16
2019-04-25T04:49:19.218Z,11.12
2019-04-25T04:50:19.255Z,11.11
2019-04-25T04:51:19.199Z,11.13
2019-04-25T04:52:19.185Z,11.17
2019-04-25T04:53:19.179Z,11.17
2019-04-25T04:54:19.276Z,11.13
2019-04-25T04:55:19.756Z,11.12
2019-04-25T04:56:19.399Z,11.17
2019-04-25T04:57:28.903Z,11.11
2019-04-25T04:58:20.116Z,11.13
2019-04-25T04:59:19.113Z,11.17
2019-04-25T05:00:19.116Z,11.17
2019-04-25T05:01:19.163Z,11.11
2019-04-25T05:02:19.104Z,11.16
2019-04-25T05:03:19.063Z,11.21
2019-04-25T05:04:19.113Z,11.13
2019-04-25T05:05:19.144Z,11.17
2019-04-25T05:06:19.244Z,11.28
2019-04-25T05:07:19.533Z,11.26
2019-04-25T05:08:19.040Z,11.23
2019-04-25T05:09:19.791Z,11.20
2019-04-25T05:10:20.013Z,11.26
2019-04-25T05:11:19.856Z,11.26
2019-04-25T05:12:19.450Z,11.24
2019-04-25T05:13:19.756Z,11.23
2019-04-25T05:14:19.540Z,11.21
2019-04-25T05:15:19.173Z,11.28
2019-04-25T05:16:19.754Z,11.31
2019-04-25T05:17:19.683Z,11.36
2019-04-25T05:18:33.065Z,11.35
2019-04-25T05:19:19.962Z,11.41
2019-04-25T05:20:18.961Z,11.45
2019-04-25T05:21:18.876Z,11.36
2019-04-25T05:22:18.892Z,11.46
2019-04-25T05:23:18.901Z,11.39
2019-04-25T05:24:18.838Z,11.44
2019-04-25T05:25:19.172Z,11.42
2019-04-25T05:26:19.006Z,11.42
2019-04-25T05:27:33.717Z,11.51
2019-04-25T05:28:19.798Z,11.42
2019-04-25T05:29:21.339Z,11.45
2019-04-25T05:30:19.149Z,11.42
2019-04-25T05:31:19.276Z,11.41
2019-04-25T05:32:19.214Z,11.44
2019-04-25T05:33:21.174Z,11.45
2019-04-25T05:34:19.614Z,11.45
2019-04-25T05:35:18.774Z,11.49
2019-04-25T05:36:19.596Z,11.44
2019-04-25T05:37:19.642Z,11.42
2019-04-25T05:38:18.703Z,11.51
2019-04-25T05:39:19.450Z,11.46
2019-04-25T05:40:18.673Z,11.46
2019-04-25T05:41:18.671Z,11.51
2019-04-25T05:42:18.722Z,11.62
2019-04-25T05:43:18.673Z,11.57
2019-04-25T05:44:18.784Z,11.62
2019-04-25T05:45:19.867Z,11.57
2019-04-25T05:46:19.052Z,11.51
2019-04-25T05:47:21.136Z,11.60
2019-04-25T05:48:19.007Z,11.64
2019-04-25T05:49:19.459Z,11.60
2019-04-25T05:50:18.566Z,11.63
2019-04-25T05:51:19.465Z,11.62
2019-04-25T05:52:18.547Z,11.59
2019-04-25T05:53:18.536Z,11.56
2019-04-25T05:54:18.528Z,11.53
2019-04-25T05:55:19.889Z,11.56
2019-04-25T05:56:18.499Z,11.54
2019-04-25T05:57:18.510Z,11.66
2019-04-25T05:58:18.610Z,11.48
2019-04-25T05:59:19.471Z,11.54
2019-04-25T06:00:19.008Z,11.54
2019-04-25T06:01:18.878Z,11.49
2019-04-25T06:02:19.424Z,11.49
2019-04-25T06:03:18.768Z,11.49
2019-04-25T06:04:19.073Z,11.57
2019-04-25T06:05:19.068Z,11.46
2019-04-25T06:06:19.192Z,11.53
2019-04-25T06:07:19.310Z,11.48
2019-04-25T06:08:19.369Z,11.42
2019-04-25T06:09:19.303Z,11.56
2019-04-25T06:10:19.465Z,11.48
2019-04-25T06:11:19.576Z,11.54
2019-04-25T06:12:18.354Z,11.56
2019-04-25T06:13:18.321Z,11.54
2019-04-25T06:14:18.426Z,11.63
2019-04-25T06:15:18.460Z,11.56
2019-04-25T06:16:18.563Z,11.59
2019-04-25T06:17:19.974Z,11.54
2019-04-25T06:18:19.749Z,11.51
2019-04-25T06:19:20.617Z,11.57
2019-04-25T06:20:19.279Z,11.56
2019-04-25T06:21:19.157Z,11.59
2019-04-25T06:22:18.456Z,11.69
2019-04-25T06:23:18.922Z,11.56
2019-04-25T06:24:19.114Z,11.72
2019-04-25T06:25:18.210Z,11.77
2019-04-25T06:26:26.740Z,11.78
2019-04-25T06:27:19.712Z,11.70
2019-04-25T06:28:18.156Z,11.77
2019-04-25T06:29:18.177Z,11.85
2019-04-25T06:30:18.177Z,11.93
2019-04-25T06:31:19.718Z,11.85
2019-04-25T06:32:18.115Z,11.82
2019-04-25T06:33:18.162Z,11.87
2019-04-25T06:34:19.860Z,11.88
2019-04-25T06:35:18.106Z,11.94
2019-04-25T06:36:18.091Z,11.87
2019-04-25T06:37:18.066Z,11.93
2019-04-25T06:38:18.055Z,11.90
2019-04-25T06:39:18.041Z,12.00
2019-04-25T06:40:18.038Z,12.05
2019-04-25T06:41:18.049Z,12.03
2019-04-25T06:42:18.011Z,12.07
2019-04-25T06:43:18.020Z,12.03
2019-04-25T06:44:17.987Z,12.04
2019-04-25T06:45:17.987Z,11.97
2019-04-25T06:46:17.978Z,12.03
2019-04-25T06:47:17.990Z,12.07
2019-04-25T06:48:18.923Z,11.98
2019-04-25T06:49:17.938Z,12.07
2019-04-25T06:50:17.922Z,12.07
2019-04-25T06:51:17.912Z,12.05
2019-04-25T06:52:17.911Z,12.01
2019-04-25T06:53:17.918Z,12.00
2019-04-25T06:54:17.881Z,12.05
2019-04-25T06:55:17.890Z,11.97
2019-04-25T06:56:17.868Z,12.08
2019-04-25T06:57:17.856Z,12.01
2019-04-25T06:58:17.896Z,12.01
2019-04-25T06:59:17.915Z,12.16
2019-04-25T07:00:17.825Z,12.30
2019-04-25T07:01:17.823Z,12.33
2019-04-25T07:02:17.802Z,12.23
2019-04-25T07:03:17.788Z,12.36
2019-04-25T07:04:17.778Z,12.34
2019-04-25T07:05:26.541Z,12.40
2019-04-25T07:06:18.753Z,12.48
2019-04-25T07:07:17.777Z,12.40
2019-04-25T07:08:17.743Z,12.48
2019-04-25T07:09:17.744Z,12.40
2019-04-25T07:10:17.708Z,12.41
2019-04-25T07:11:17.736Z,12.43
2019-04-25T07:12:17.690Z,12.40
2019-04-25T07:13:17.682Z,12.38
2019-04-25T07:14:17.683Z,12.40
2019-04-25T07:15:17.663Z,12.48
2019-04-25T07:16:17.651Z,12.38
2019-04-25T07:17:17.678Z,12.44
2019-04-25T07:18:17.635Z,12.49
2019-04-25T07:19:17.703Z,12.51
2019-04-25T07:20:17.607Z,12.49
2019-04-25T07:21:17.603Z,12.58
2019-04-25T07:22:17.630Z,12.48
2019-04-25T07:23:17.601Z,12.59
2019-04-25T07:24:17.686Z,12.67
2019-04-25T07:25:17.550Z,12.74
2019-04-25T07:26:17.552Z,12.67
2019-04-25T07:27:17.564Z,12.77
2019-04-25T07:28:24.344Z,12.74
2019-04-25T07:29:18.547Z,12.67
2019-04-25T07:30:27.188Z,12.74
2019-04-25T07:31:18.493Z,12.79
2019-04-25T07:32:17.478Z,12.71
2019-04-25T07:33:17.469Z,12.73
2019-04-25T07:34:17.456Z,12.73
2019-04-25T07:35:17.509Z,12.70
2019-04-25T07:36:17.433Z,12.79
2019-04-25T07:37:17.421Z,12.79
2019-04-25T07:38:17.417Z,12.89
2019-04-25T07:39:17.401Z,12.92
2019-04-25T07:40:17.408Z,13.03
2019-04-25T07:41:17.412Z,13.09
2019-04-25T07:42:17.408Z,13.17
2019-04-25T07:43:17.388Z,13.13
2019-04-25T07:44:17.466Z,13.14
2019-04-25T07:45:17.434Z,13.14
2019-04-25T07:46:17.334Z,13.13
2019-04-25T07:47:17.368Z,13.19
2019-04-25T07:48:17.311Z,13.25
2019-04-25T07:49:17.325Z,13.24
2019-04-25T07:50:17.293Z,13.29
2019-04-25T07:51:17.278Z,13.22
2019-04-25T07:52:17.283Z,13.36
2019-04-25T07:53:17.271Z,13.31
2019-04-25T07:54:17.248Z,13.39
2019-04-25T07:55:17.268Z,13.22
2019-04-25T07:56:17.236Z,13.35
2019-04-25T07:57:17.235Z,13.32
2019-04-25T07:58:17.231Z,13.43
2019-04-25T07:59:17.189Z,13.53
2019-04-25T08:00:17.190Z,13.61
2019-04-25T08:01:17.163Z,13.62
2019-04-25T08:02:17.163Z,13.63
2019-04-25T08:03:17.142Z,13.48
2019-04-25T08:04:17.179Z,13.51
2019-04-25T08:05:17.127Z,13.54
2019-04-25T08:06:17.116Z,13.54
2019-04-25T08:07:17.107Z,13.59
2019-04-25T08:08:17.099Z,13.59
2019-04-25T08:09:17.079Z,13.50
2019-04-25T08:10:17.106Z,13.50
2019-04-25T08:11:17.097Z,13.50
2019-04-25T08:12:17.059Z,13.54
2019-04-25T08:13:17.047Z,13.62
2019-04-25T08:14:17.031Z,13.59
2019-04-25T08:15:17.034Z,13.66
2019-04-25T08:16:17.036Z,13.69
2019-04-25T08:17:16.997Z,13.65
2019-04-25T08:18:17.011Z,13.83
2019-04-25T08:19:16.977Z,13.84
2019-04-25T08:20:16.966Z,14.02
2019-04-25T08:21:16.952Z,14.01
2019-04-25T08:22:16.987Z,14.04
2019-04-25T08:23:16.947Z,14.09
2019-04-25T08:24:16.944Z,14.20
2019-04-25T08:25:16.912Z,14.23
2019-04-25T08:26:16.908Z,14.34
2019-04-25T08:27:16.927Z,14.31
2019-04-25T08:28:16.946Z,14.27
2019-04-25T08:29:16.883Z,14.23
2019-04-25T08:30:16.897Z,14.23
2019-04-25T08:31:16.851Z,14.20
2019-04-25T08:32:16.845Z,14.36
2019-04-25T08:33:16.904Z,14.38
2019-04-25T08:34:16.870Z,14.27
2019-04-25T08:35:16.821Z,14.41
2019-04-25T08:36:16.833Z,14.56
2019-04-25T08:37:20.331Z,14.67
2019-04-25T08:38:16.838Z,14.67
2019-04-25T08:39:16.795Z,14.80
2019-04-25T08:40:16.774Z,14.74
2019-04-25T08:41:16.751Z,14.79
2019-04-25T08:42:16.745Z,14.98
2019-04-25T08:43:16.719Z,15.12
2019-04-25T08:44:16.733Z,15.12
2019-04-25T08:45:16.697Z,15.18
2019-04-25T08:46:16.718Z,15.25
2019-04-25T08:47:16.684Z,15.19
2019-04-25T08:48:16.671Z,15.19
2019-04-25T08:49:16.661Z,15.13
2019-04-25T08:50:26.995Z,15.15
2019-04-25T08:51:17.684Z,15.16
2019-04-25T08:52:16.624Z,15.19
2019-04-25T08:53:16.617Z,15.16
2019-04-25T08:54:16.598Z,15.30
2019-04-25T08:55:16.609Z,15.31
2019-04-25T08:56:16.603Z,15.35
2019-04-25T08:57:16.600Z,15.28
2019-04-25T08:58:16.566Z,15.37
2019-04-25T08:59:16.567Z,15.27
2019-04-25T09:00:16.544Z,15.28
2019-04-25T09:01:16.527Z,15.22
2019-04-25T09:02:16.517Z,15.16
2019-04-25T09:03:16.534Z,15.15
2019-04-25T09:04:16.500Z,15.31
2019-04-25T09:05:16.489Z,15.35
2019-04-25T09:06:16.475Z,15.48
2019-04-25T09:07:16.491Z,15.52
2019-04-25T09:08:16.466Z,15.51
2019-04-25T09:09:16.444Z,15.48
2019-04-25T09:10:16.468Z,15.44
2019-04-25T09:11:16.491Z,15.44
2019-04-25T09:12:16.416Z,15.38
2019-04-25T09:13:16.420Z,15.38
2019-04-25T09:14:16.387Z,15.37
2019-04-25T09:15:16.382Z,15.33
2019-04-25T09:16:16.380Z,15.38
2019-04-25T09:17:16.377Z,15.46
2019-04-25T09:18:16.342Z,15.43
2019-04-25T09:19:16.349Z,15.46
2019-04-25T09:20:16.359Z,15.51
2019-04-25T09:21:16.323Z,15.49
2019-04-25T09:22:16.316Z,15.68
2019-04-25T09:23:16.318Z,15.80
2019-04-25T09:24:16.317Z,15.88
2019-04-25T09:25:16.282Z,15.91
2019-04-25T09:26:16.261Z,15.89
2019-04-25T09:27:16.254Z,15.84
2019-04-25T09:28:16.254Z,15.98
2019-04-25T09:29:19.609Z,15.98
2019-04-25T09:30:16.239Z,16.16
2019-04-25T09:31:16.211Z,16.22
2019-04-25T09:32:16.201Z,16.17
2019-04-25T09:33:16.183Z,16.27
2019-04-25T09:34:16.185Z,16.47
2019-04-25T09:35:16.170Z,16.59
2019-04-25T09:36:16.219Z,16.80
2019-04-25T09:37:16.149Z,16.98
2019-04-25T09:38:16.137Z,16.88
2019-04-25T09:39:16.127Z,16.92
2019-04-25T09:40:16.136Z,16.98
2019-04-25T09:41:16.102Z,16.90
2019-04-25T09:42:16.137Z,16.82
2019-04-25T09:43:16.080Z,16.87
2019-04-25T09:44:16.064Z,16.78
2019-04-25T09:45:16.082Z,16.75
2019-04-25T09:46:16.049Z,16.73
2019-04-25T09:47:16.035Z,16.78
2019-04-25T09:48:16.061Z,16.82
2019-04-25T09:49:16.060Z,16.95
2019-04-25T09:50:16.009Z,17.06
2019-04-25T09:51:15.999Z,17.17
2019-04-25T09:52:15.995Z,17.27
2019-04-25T09:53:23.340Z,17.35
2019-04-25T09:54:17.007Z,17.46
2019-04-25T09:55:15.972Z,17.51
2019-04-25T09:56:15.946Z,17.43
2019-04-25T09:57:15.929Z,17.40
2019-04-25T09:58:15.926Z,17.28
2019-04-25T09:59:26.697Z,17.22
2019-04-25T10:00:16.928Z,17.22
2019-04-25T10:01:15.911Z,17.25
2019-04-25T10:02:15.882Z,17.42
2019-04-25T10:03:15.868Z,17.55
2019-04-25T10:04:15.858Z,17.62
2019-04-25T10:05:15.847Z,17.87
2019-04-25T10:06:15.885Z,17.99
2019-04-25T10:07:15.825Z,18.01
2019-04-25T10:08:15.812Z,18.01
2019-04-25T10:09:15.814Z,18.05
2019-04-25T10:10:15.801Z,18.13
2019-04-25T10:11:16.033Z,18.11
2019-04-25T10:12:15.791Z,18.20
2019-04-25T10:13:15.754Z,18.26
2019-04-25T10:14:15.809Z,18.36
2019-04-25T10:15:15.784Z,18.59
2019-04-25T10:16:15.737Z,18.54
2019-04-25T10:17:15.723Z,18.69
2019-04-25T10:18:15.728Z,18.54
2019-04-25T10:19:15.716Z,18.60
2019-04-25T10:20:15.722Z,18.60
2019-04-25T10:21:15.702Z,18.57
2019-04-25T10:22:15.661Z,18.54
2019-04-25T10:23:15.753Z,18.62
2019-04-25T10:24:15.851Z,18.69
2019-04-25T10:25:15.625Z,18.84
2019-04-25T10:26:15.638Z,18.87
2019-04-25T10:27:15.627Z,18.86
2019-04-25T10:28:15.600Z,18.93
2019-04-25T10:29:15.637Z,19.07
2019-04-25T10:30:19.652Z,19.10
2019-04-25T10:31:16.572Z,19.16
2019-04-25T10:32:15.550Z,19.23
2019-04-25T10:33:15.566Z,19.15
2019-04-25T10:34:15.533Z,19.16
2019-04-25T10:35:15.542Z,19.27
2019-04-25T10:36:15.544Z,19.25
2019-04-25T10:37:15.501Z,19.27
2019-04-25T10:38:15.509Z,19.23
2019-04-25T10:39:15.497Z,19.40
2019-04-25T10:40:15.473Z,19.40
2019-04-25T10:41:15.503Z,19.40
2019-04-25T10:42:15.446Z,19.40
2019-04-25T10:43:15.456Z,19.42
2019-04-25T10:44:15.492Z,19.50
2019-04-25T10:45:23.155Z,19.62
2019-04-25T10:46:16.433Z,19.76
2019-04-25T10:47:15.474Z,19.83
2019-04-25T10:48:15.378Z,20.05
2019-04-25T10:49:15.383Z,20.01
2019-04-25T10:50:15.366Z,20.08
2019-04-25T10:51:15.349Z,20.13
2019-04-25T10:52:15.679Z,20.22
2019-04-25T10:53:15.329Z,20.23
2019-04-25T10:54:15.389Z,20.20
2019-04-25T10:55:15.324Z,20.17
2019-04-25T10:56:15.297Z,20.19
2019-04-25T10:57:15.283Z,20.19
2019-04-25T10:58:15.318Z,20.31
2019-04-25T10:59:15.282Z,20.35
2019-04-25T11:00:15.295Z,20.53
2019-04-25T11:01:15.445Z,20.56
2019-04-25T11:02:15.327Z,20.57
2019-04-25T11:03:15.229Z,20.56
2019-04-25T11:04:15.257Z,20.57
2019-04-25T11:05:15.219Z,20.66
2019-04-25T11:06:15.215Z,20.68
2019-04-25T11:07:15.190Z,20.72
2019-04-25T11:08:16.904Z,20.68
2019-04-25T11:09:15.162Z,20.72
2019-04-25T11:10:15.186Z,20.64
2019-04-25T11:11:15.147Z,20.68
2019-04-25T11:12:15.152Z,20.71
2019-04-25T11:13:15.133Z,20.91
2019-04-25T11:14:15.163Z,21.06
2019-04-25T11:15:15.099Z,20.94
2019-04-25T11:16:15.134Z,21.01
2019-04-25T11:17:15.525Z,21.01
2019-04-25T11:18:15.262Z,21.09
2019-04-25T11:19:15.315Z,21.11
2019-04-25T11:20:15.086Z,21.19
2019-04-25T11:21:15.036Z,21.33
2019-04-25T11:22:15.580Z,21.33
2019-04-25T11:23:15.022Z,21.34
2019-04-25T11:24:15.029Z,21.31
2019-04-25T11:25:15.035Z,21.37
2019-04-25T11:26:14.980Z,21.26
2019-04-25T11:27:14.999Z,21.37
2019-04-25T11:28:14.959Z,21.42
2019-04-25T11:29:15.070Z,21.49
2019-04-25T11:30:14.945Z,21.64
2019-04-25T11:31:14.931Z,21.64
2019-04-25T11:32:14.973Z,21.74
2019-04-25T11:33:15.029Z,21.74
2019-04-25T11:34:14.931Z,21.81
2019-04-25T11:35:14.889Z,21.98
2019-04-25T11:36:14.875Z,21.96
2019-04-25T11:37:14.887Z,21.93
2019-04-25T11:38:14.868Z,21.82
2019-04-25T11:39:14.870Z,21.89
2019-04-25T11:40:14.840Z,21.82
2019-04-25T11:41:14.834Z,21.74
2019-04-25T11:42:15.064Z,21.73
2019-04-25T11:43:14.873Z,21.77
2019-04-25T11:44:14.803Z,21.83
2019-04-25T11:45:14.843Z,21.96
2019-04-25T11:46:14.787Z,21.94
2019-04-25T11:47:15.498Z,22.09
2019-04-25T11:48:14.758Z,22.06
2019-04-25T11:49:15.296Z,21.99
2019-04-25T11:50:14.734Z,21.96
2019-04-25T11:51:14.750Z,21.96
2019-04-25T11:52:21.424Z,21.94
2019-04-25T11:53:15.730Z,21.89
2019-04-25T11:54:14.697Z,21.83
2019-04-25T11:55:14.687Z,21.81
2019-04-25T11:56:14.671Z,21.82
2019-04-25T11:57:14.706Z,21.79
2019-04-25T11:58:14.653Z,21.81
2019-04-25T11:59:15.731Z,21.81
2019-04-25T12:00:21.954Z,21.74
2019-04-25T12:01:15.616Z,21.73
2019-04-25T12:02:14.634Z,21.77
2019-04-25T12:03:14.631Z,21.70
2019-04-25T12:04:14.882Z,21.81
2019-04-25T12:05:15.122Z,21.94
2019-04-25T12:06:14.614Z,21.96
2019-04-25T12:07:14.557Z,22.06
2019-04-25T12:08:14.556Z,22.06
2019-04-25T12:09:14.590Z,21.98
2019-04-25T12:10:14.528Z,21.86
2019-04-25T12:11:14.532Z,21.61
2019-04-25T12:12:14.757Z,21.49
2019-04-25T12:13:15.440Z,21.33
2019-04-25T12:14:14.946Z,21.13
2019-04-25T12:15:14.932Z,21.11
2019-04-25T12:16:14.548Z,21.05
2019-04-25T12:17:14.462Z,21.01
2019-04-25T12:18:14.445Z,21.08
2019-04-25T12:19:14.439Z,21.08
2019-04-25T12:20:14.428Z,21.13
2019-04-25T12:21:14.444Z,21.03
2019-04-25T12:22:14.416Z,20.97
2019-04-25T12:23:14.539Z,21.01
2019-04-25T12:24:14.399Z,20.98
2019-04-25T12:25:15.087Z,20.98
2019-04-25T12:26:14.365Z,20.91
2019-04-25T12:27:14.383Z,21.03
2019-04-25T12:28:14.347Z,21.06
2019-04-25T12:29:14.488Z,21.06
2019-04-25T12:30:14.369Z,21.12
2019-04-25T12:31:14.818Z,21.06
2019-04-25T12:32:14.286Z,21.13
2019-04-25T12:33:21.117Z,21.19
2019-04-25T12:34:15.283Z,21.22
2019-04-25T12:35:14.329Z,21.33
2019-04-25T12:36:14.267Z,21.36
2019-04-25T12:37:14.246Z,21.37
2019-04-25T12:38:14.252Z,21.55
2019-04-25T12:39:14.250Z,21.63
2019-04-25T12:40:14.239Z,21.59
2019-04-25T12:41:14.204Z,21.59
2019-04-25T12:42:14.496Z,21.58
2019-04-25T12:43:14.183Z,21.52
2019-04-25T12:44:14.176Z,21.63
2019-04-25T12:45:14.256Z,21.71
2019-04-25T12:46:14.143Z,21.82
2019-04-25T12:47:14.139Z,21.83
2019-04-25T12:48:14.546Z,21.82
2019-04-25T12:49:15.232Z,21.90
2019-04-25T12:50:14.431Z,21.93
2019-04-25T12:51:14.118Z,21.94
2019-04-25T12:52:14.087Z,22.05